sensor_id;sensor_type;location;lat;lon;timestamp;pressure;altitude;pressure_sealevel;temperature;humidity
64388;BME280;50709;52.648;4.764;2023-11-18T00:01:39;102342.63;;;10.71;77.22
64388;BME280;50709;52.648;4.764;2023-11-18T00:04:06;102322.69;;;10.74;77.60
64388;BME280;50709;52.648;4.764;2023-11-18T00:06:35;102347.66;;;10.63;77.06
64388;BME280;50709;52.648;4.764;2023-11-18T00:09:03;102349.31;;;10.59;76.56
64388;BME280;50709;52.648;4.764;2023-11-18T00:11:28;102340.88;;;10.71;77.20
64388;BME280;50709;52.648;4.764;2023-11-18T00:13:55;102325.66;;;10.55;76.18
64388;BME280;50709;52.648;4.764;2023-11-18T00:16:22;102339.97;;;10.36;76.66
64388;BME280;50709;52.648;4.764;2023-11-18T00:18:47;102344.16;;;10.63;77.04
64388;BME280;50709;52.648;4.764;2023-11-18T00:21:13;102334.97;;;10.43;76.95
64388;BME280;50709;52.648;4.764;2023-11-18T00:23:38;102331.28;;;10.37;77.03
64388;BME280;50709;52.648;4.764;2023-11-18T00:26:24;102317.44;;;10.39;77.34
64388;BME280;50709;52.648;4.764;2023-11-18T00:28:51;102327.47;;;10.57;78.21
64388;BME280;50709;52.648;4.764;2023-11-18T00:31:36;102332.25;;;10.74;77.15
64388;BME280;50709;52.648;4.764;2023-11-18T00:34:01;102338.41;;;10.42;76.29
64388;BME280;50709;52.648;4.764;2023-11-18T00:36:27;102340.47;;;10.54;76.76
64388;BME280;50709;52.648;4.764;2023-11-18T00:38:53;102334.88;;;10.75;77.58
64388;BME280;50709;52.648;4.764;2023-11-18T00:41:19;102336.53;;;10.70;77.22
64388;BME280;50709;52.648;4.764;2023-11-18T00:43:48;102340.81;;;10.68;76.95
64388;BME280;50709;52.648;4.764;2023-11-18T00:46:13;102327.56;;;10.62;76.21
64388;BME280;50709;52.648;4.764;2023-11-18T00:48:39;102340.28;;;10.82;77.46
64388;BME280;50709;52.648;4.764;2023-11-18T00:51:05;102339.00;;;11.01;77.38
64388;BME280;50709;52.648;4.764;2023-11-18T00:53:53;102321.63;;;10.66;76.62
64388;BME280;50709;52.648;4.764;2023-11-18T00:56:20;102351.53;;;11.14;77.67
64388;BME280;50709;52.648;4.764;2023-11-18T00:58:49;102345.81;;;11.31;75.53
64388;BME280;50709;52.648;4.764;2023-11-18T01:01:15;102343.66;;;11.13;75.69
64388;BME280;50709;52.648;4.764;2023-11-18T01:03:46;102335.38;;;11.32;76.52
64388;BME280;50709;52.648;4.764;2023-11-18T01:06:12;102346.41;;;11.19;75.84
64388;BME280;50709;52.648;4.764;2023-11-18T01:08:37;102346.06;;;11.43;77.43
64388;BME280;50709;52.648;4.764;2023-11-18T01:11:06;102328.19;;;11.22;75.65
64388;BME280;50709;52.648;4.764;2023-11-18T01:13:32;102341.06;;;11.52;76.38
64388;BME280;50709;52.648;4.764;2023-11-18T01:15:57;102344.66;;;11.57;75.65
64388;BME280;50709;52.648;4.764;2023-11-18T01:18:23;102308.72;;;11.10;74.44
64388;BME280;50709;52.648;4.764;2023-11-18T01:20:49;102340.78;;;11.40;75.77
64388;BME280;50709;52.648;4.764;2023-11-18T01:23:14;102337.19;;;11.35;76.02
64388;BME280;50709;52.648;4.764;2023-11-18T01:25:40;102330.69;;;11.19;75.66
64388;BME280;50709;52.648;4.764;2023-11-18T01:28:06;102321.22;;;11.22;75.76
64388;BME280;50709;52.648;4.764;2023-11-18T01:30:31;102307.22;;;11.20;76.95
64388;BME280;50709;52.648;4.764;2023-11-18T01:33:17;102337.19;;;11.35;76.24
64388;BME280;50709;52.648;4.764;2023-11-18T01:35:43;102332.16;;;11.44;77.42
64388;BME280;50709;52.648;4.764;2023-11-18T01:38:09;102335.19;;;11.23;76.02
64388;BME280;50709;52.648;4.764;2023-11-18T01:40:34;102337.28;;;11.38;76.88
64388;BME280;50709;52.648;4.764;2023-11-18T01:43:00;102346.97;;;11.43;76.68
64388;BME280;50709;52.648;4.764;2023-11-18T01:45:46;102338.13;;;11.38;76.23
64388;BME280;50709;52.648;4.764;2023-11-18T01:48:13;102340.81;;;11.41;76.05
64388;BME280;50709;52.648;4.764;2023-11-18T01:50:40;102339.78;;;11.35;76.27
64388;BME280;50709;52.648;4.764;2023-11-18T01:53:07;102349.25;;;11.30;76.75
64388;BME280;50709;52.648;4.764;2023-11-18T01:55:33;102356.22;;;11.29;76.44
64388;BME280;50709;52.648;4.764;2023-11-18T01:58:01;102345.50;;;11.17;75.77
64388;BME280;50709;52.648;4.764;2023-11-18T02:00:34;102358.66;;;11.21;75.88
64388;BME280;50709;52.648;4.764;2023-11-18T02:03:00;102354.06;;;11.11;76.83
64388;BME280;50709;52.648;4.764;2023-11-18T02:05:25;102348.03;;;11.14;76.20
64388;BME280;50709;52.648;4.764;2023-11-18T02:07:51;102355.97;;;11.18;75.96
64388;BME280;50709;52.648;4.764;2023-11-18T02:10:17;102353.09;;;11.44;76.14
64388;BME280;50709;52.648;4.764;2023-11-18T02:12:58;102358.25;;;11.03;75.22
64388;BME280;50709;52.648;4.764;2023-11-18T02:15:27;102340.09;;;11.10;76.41
64388;BME280;50709;52.648;4.764;2023-11-18T02:17:57;102343.09;;;11.26;76.04
64388;BME280;50709;52.648;4.764;2023-11-18T02:20:23;102332.81;;;11.34;76.76
64388;BME280;50709;52.648;4.764;2023-11-18T02:22:49;102327.78;;;11.05;77.18
64388;BME280;50709;52.648;4.764;2023-11-18T02:25:17;102333.16;;;11.11;76.96
64388;BME280;50709;52.648;4.764;2023-11-18T02:27:43;102344.31;;;11.40;75.96
64388;BME280;50709;52.648;4.764;2023-11-18T02:30:09;102315.38;;;11.34;76.98
64388;BME280;50709;52.648;4.764;2023-11-18T02:38:06;102325.78;;;11.31;76.16
64388;BME280;50709;52.648;4.764;2023-11-18T02:40:58;102319.31;;;11.15;76.53
64388;BME280;50709;52.648;4.764;2023-11-18T02:43:27;102327.50;;;10.94;76.71
64388;BME280;50709;52.648;4.764;2023-11-18T02:45:57;102315.63;;;11.07;76.41
64388;BME280;50709;52.648;4.764;2023-11-18T02:48:22;102307.94;;;11.15;77.07
64388;BME280;50709;52.648;4.764;2023-11-18T02:50:49;102304.25;;;11.05;76.78
64388;BME280;50709;52.648;4.764;2023-11-18T02:53:14;102307.41;;;10.91;76.18
64388;BME280;50709;52.648;4.764;2023-11-18T02:55:39;102310.56;;;10.78;76.98
64388;BME280;50709;52.648;4.764;2023-11-18T02:58:06;102316.66;;;10.77;76.04
64388;BME280;50709;52.648;4.764;2023-11-18T03:00:33;102311.47;;;10.79;77.64
64388;BME280;50709;52.648;4.764;2023-11-18T03:03:01;102310.66;;;10.81;76.89
64388;BME280;50709;52.648;4.764;2023-11-18T03:05:28;102303.09;;;10.92;76.54
64388;BME280;50709;52.648;4.764;2023-11-18T03:07:53;102299.69;;;10.96;77.50
64388;BME280;50709;52.648;4.764;2023-11-18T03:10:21;102293.59;;;10.97;76.96
64388;BME280;50709;52.648;4.764;2023-11-18T03:12:51;102291.94;;;10.64;76.89
64388;BME280;50709;52.648;4.764;2023-11-18T03:15:19;102283.72;;;10.84;76.92
64388;BME280;50709;52.648;4.764;2023-11-18T03:17:49;102274.97;;;10.83;77.67
64388;BME280;50709;52.648;4.764;2023-11-18T03:20:16;102273.19;;;10.46;76.98
64388;BME280;50709;52.648;4.764;2023-11-18T03:22:45;102223.59;;;10.47;76.90
64388;BME280;50709;52.648;4.764;2023-11-18T03:25:13;102261.63;;;10.71;76.61
64388;BME280;50709;52.648;4.764;2023-11-18T03:27:41;102276.03;;;10.91;78.11
64388;BME280;50709;52.648;4.764;2023-11-18T03:30:27;102246.03;;;10.75;77.07
64388;BME280;50709;52.648;4.764;2023-11-18T03:32:55;102250.72;;;10.89;76.88
64388;BME280;50709;52.648;4.764;2023-11-18T03:35:20;102233.34;;;10.91;77.45
64388;BME280;50709;52.648;4.764;2023-11-18T03:37:46;102234.78;;;10.78;77.89
64388;BME280;50709;52.648;4.764;2023-11-18T03:40:14;102206.03;;;10.78;76.84
64388;BME280;50709;52.648;4.764;2023-11-18T03:42:45;102224.69;;;10.93;77.00
64388;BME280;50709;52.648;4.764;2023-11-18T03:45:11;102230.97;;;10.64;77.26
64388;BME280;50709;52.648;4.764;2023-11-18T03:47:39;102212.75;;;10.32;76.63
64388;BME280;50709;52.648;4.764;2023-11-18T03:50:05;102207.00;;;10.82;76.81
64388;BME280;50709;52.648;4.764;2023-11-18T03:52:33;102196.13;;;10.65;76.46
64388;BME280;50709;52.648;4.764;2023-11-18T03:54:59;102193.50;;;10.63;76.98
64388;BME280;50709;52.648;4.764;2023-11-18T03:57:25;102180.91;;;10.85;76.37
64388;BME280;50709;52.648;4.764;2023-11-18T03:59:50;102173.84;;;10.41;76.88
64388;BME280;50709;52.648;4.764;2023-11-18T04:02:17;102196.59;;;10.85;76.71
64388;BME280;50709;52.648;4.764;2023-11-18T04:04:42;102205.59;;;10.96;76.82
64388;BME280;50709;52.648;4.764;2023-11-18T04:07:09;102204.94;;;10.68;76.17
64388;BME280;50709;52.648;4.764;2023-11-18T04:09:34;102195.78;;;10.49;74.60
64388;BME280;50709;52.648;4.764;2023-11-18T04:12:00;102177.22;;;10.37;75.46
64388;BME280;50709;52.648;4.764;2023-11-18T04:14:28;102179.34;;;10.53;75.38
64388;BME280;50709;52.648;4.764;2023-11-18T04:16:53;102178.78;;;10.67;77.37
64388;BME280;50709;52.648;4.764;2023-11-18T04:19:23;102175.84;;;10.91;77.44
64388;BME280;50709;52.648;4.764;2023-11-18T04:22:08;102167.78;;;10.82;76.60
64388;BME280;50709;52.648;4.764;2023-11-18T04:24:34;102182.50;;;10.78;75.96
64388;BME280;50709;52.648;4.764;2023-11-18T04:27:01;102176.91;;;10.61;76.89
64388;BME280;50709;52.648;4.764;2023-11-18T04:29:27;102161.25;;;10.26;75.97
64388;BME280;50709;52.648;4.764;2023-11-18T04:31:52;102158.34;;;10.49;77.55
64388;BME280;50709;52.648;4.764;2023-11-18T04:34:38;102166.31;;;10.55;77.45
64388;BME280;50709;52.648;4.764;2023-11-18T04:37:25;102133.44;;;10.65;77.12
64388;BME280;50709;52.648;4.764;2023-11-18T04:39:51;102156.66;;;10.52;75.77
64388;BME280;50709;52.648;4.764;2023-11-18T04:42:18;102146.75;;;10.75;76.90
64388;BME280;50709;52.648;4.764;2023-11-18T04:45:05;102156.81;;;10.22;77.18
64388;BME280;50709;52.648;4.764;2023-11-18T04:47:51;102132.53;;;10.26;76.40
64388;BME280;50709;52.648;4.764;2023-11-18T04:50:36;102156.03;;;10.61;76.76
64388;BME280;50709;52.648;4.764;2023-11-18T04:53:01;102155.09;;;10.59;75.48
64388;BME280;50709;52.648;4.764;2023-11-18T04:55:33;102150.53;;;10.88;76.36
64388;BME280;50709;52.648;4.764;2023-11-18T04:57:59;102148.72;;;10.86;76.46
64388;BME280;50709;52.648;4.764;2023-11-18T05:00:24;102141.50;;;10.75;76.30
64388;BME280;50709;52.648;4.764;2023-11-18T05:02:50;102158.66;;;11.02;75.72
64388;BME280;50709;52.648;4.764;2023-11-18T05:05:17;102164.81;;;11.04;76.29
64388;BME280;50709;52.648;4.764;2023-11-18T05:07:43;102158.66;;;11.02;75.94
64388;BME280;50709;52.648;4.764;2023-11-18T05:10:09;102157.78;;;11.02;75.55
64388;BME280;50709;52.648;4.764;2023-11-18T05:12:36;102124.59;;;10.99;75.75
64388;BME280;50709;52.648;4.764;2023-11-18T05:15:22;102118.78;;;10.71;75.24
64388;BME280;50709;52.648;4.764;2023-11-18T05:17:56;102146.38;;;11.00;75.39
64388;BME280;50709;52.648;4.764;2023-11-18T05:20:22;102116.06;;;10.65;74.91
64388;BME280;50709;52.648;4.764;2023-11-18T05:22:48;102141.72;;;10.85;75.58
64388;BME280;50709;52.648;4.764;2023-11-18T05:25:17;102101.25;;;10.66;74.54
64388;BME280;50709;52.648;4.764;2023-11-18T05:27:42;102127.34;;;10.64;75.25
64388;BME280;50709;52.648;4.764;2023-11-18T05:30:09;102118.44;;;10.56;75.04
64388;BME280;50709;52.648;4.764;2023-11-18T05:32:35;102109.19;;;10.70;75.07
64388;BME280;50709;52.648;4.764;2023-11-18T05:35:05;102115.91;;;10.59;75.53
64388;BME280;50709;52.648;4.764;2023-11-18T05:37:50;102106.59;;;10.70;75.67
64388;BME280;50709;52.648;4.764;2023-11-18T05:40:16;102101.75;;;10.49;75.43
64388;BME280;50709;52.648;4.764;2023-11-18T05:42:42;102087.50;;;10.74;75.19
64388;BME280;50709;52.648;4.764;2023-11-18T05:45:11;102110.06;;;10.71;74.87
64388;BME280;50709;52.648;4.764;2023-11-18T05:47:44;102101.34;;;10.70;75.32
64388;BME280;50709;52.648;4.764;2023-11-18T05:50:10;102102.50;;;10.83;75.09
64388;BME280;50709;52.648;4.764;2023-11-18T05:52:35;102094.69;;;10.85;74.80
64388;BME280;50709;52.648;4.764;2023-11-18T05:55:20;102091.97;;;10.80;74.82
64388;BME280;50709;52.648;4.764;2023-11-18T05:57:47;102098.31;;;10.93;74.41
64388;BME280;50709;52.648;4.764;2023-11-18T06:00:14;102089.75;;;10.57;73.66
64388;BME280;50709;52.648;4.764;2023-11-18T06:02:43;102077.84;;;10.70;74.23
64388;BME280;50709;52.648;4.764;2023-11-18T06:05:29;102079.34;;;10.60;73.78
64388;BME280;50709;52.648;4.764;2023-11-18T06:08:00;102060.44;;;10.71;73.84
64388;BME280;50709;52.648;4.764;2023-11-18T06:10:25;102071.78;;;10.73;74.62
64388;BME280;50709;52.648;4.764;2023-11-18T06:13:11;102073.34;;;10.65;73.91
64388;BME280;50709;52.648;4.764;2023-11-18T06:15:43;102085.47;;;10.61;73.47
64388;BME280;50709;52.648;4.764;2023-11-18T06:18:28;102082.28;;;10.74;74.18
64388;BME280;50709;52.648;4.764;2023-11-18T06:20:54;102084.22;;;10.85;74.67
64388;BME280;50709;52.648;4.764;2023-11-18T06:23:20;102082.19;;;10.71;73.87
64388;BME280;50709;52.648;4.764;2023-11-18T06:25:47;102089.41;;;10.83;74.27
64388;BME280;50709;52.648;4.764;2023-11-18T06:28:13;102084.09;;;10.77;72.99
64388;BME280;50709;52.648;4.764;2023-11-18T06:30:40;102084.13;;;10.40;72.92
64388;BME280;50709;52.648;4.764;2023-11-18T06:33:06;102095.03;;;11.02;75.48
64388;BME280;50709;52.648;4.764;2023-11-18T06:35:32;102084.63;;;11.05;75.33
64388;BME280;50709;52.648;4.764;2023-11-18T06:37:59;102088.16;;;10.64;74.56
64388;BME280;50709;52.648;4.764;2023-11-18T06:40:25;102083.88;;;11.10;75.43
64388;BME280;50709;52.648;4.764;2023-11-18T06:42:52;102089.81;;;11.02;76.12
64388;BME280;50709;52.648;4.764;2023-11-18T06:45:19;102093.22;;;10.58;75.07
64388;BME280;50709;52.648;4.764;2023-11-18T06:47:48;102090.63;;;10.99;75.79
64388;BME280;50709;52.648;4.764;2023-11-18T06:50:15;102084.53;;;10.99;75.66
64388;BME280;50709;52.648;4.764;2023-11-18T06:52:42;102088.38;;;11.18;74.64
64388;BME280;50709;52.648;4.764;2023-11-18T06:55:08;102086.78;;;10.82;73.24
64388;BME280;50709;52.648;4.764;2023-11-18T06:57:35;102088.97;;;11.03;75.14
64388;BME280;50709;52.648;4.764;2023-11-18T07:00:01;102085.31;;;10.94;72.46
64388;BME280;50709;52.648;4.764;2023-11-18T07:02:26;102089.78;;;11.00;73.05
64388;BME280;50709;52.648;4.764;2023-11-18T07:04:53;102093.22;;;10.98;74.96
64388;BME280;50709;52.648;4.764;2023-11-18T07:07:18;102068.09;;;11.04;76.38
64388;BME280;50709;52.648;4.764;2023-11-18T07:09:44;102070.88;;;11.14;73.73
64388;BME280;50709;52.648;4.764;2023-11-18T07:12:10;102064.88;;;11.19;72.15
64388;BME280;50709;52.648;4.764;2023-11-18T07:14:35;102071.97;;;11.26;74.13
64388;BME280;50709;52.648;4.764;2023-11-18T07:17:03;102063.63;;;10.99;73.74
64388;BME280;50709;52.648;4.764;2023-11-18T07:19:49;102052.63;;;11.17;74.58
64388;BME280;50709;52.648;4.764;2023-11-18T07:22:15;102056.09;;;11.17;75.08
64388;BME280;50709;52.648;4.764;2023-11-18T07:24:40;102043.94;;;10.73;74.29
64388;BME280;50709;52.648;4.764;2023-11-18T07:27:09;102039.13;;;10.93;74.21
64388;BME280;50709;52.648;4.764;2023-11-18T07:29:36;102037.28;;;10.89;73.07
64388;BME280;50709;52.648;4.764;2023-11-18T07:32:03;102044.97;;;10.82;71.41
64388;BME280;50709;52.648;4.764;2023-11-18T07:34:31;102050.69;;;11.08;72.71
64388;BME280;50709;52.648;4.764;2023-11-18T07:36:58;102034.16;;;11.07;73.61
64388;BME280;50709;52.648;4.764;2023-11-18T07:39:24;102046.84;;;11.35;73.13
64388;BME280;50709;52.648;4.764;2023-11-18T07:42:33;102042.66;;;10.97;72.35
64388;BME280;50709;52.648;4.764;2023-11-18T07:45:01;102028.28;;;11.19;73.45
64388;BME280;50709;52.648;4.764;2023-11-18T07:47:30;102022.78;;;10.61;73.44
64388;BME280;50709;52.648;4.764;2023-11-18T07:49:59;102032.97;;;10.91;74.01
64388;BME280;50709;52.648;4.764;2023-11-18T07:52:27;102033.50;;;11.70;74.56
64388;BME280;50709;52.648;4.764;2023-11-18T07:54:54;102028.34;;;11.24;72.87
64388;BME280;50709;52.648;4.764;2023-11-18T07:57:25;102007.78;;;10.95;74.44
64388;BME280;50709;52.648;4.764;2023-11-18T07:59:53;102026.75;;;10.86;73.47
64388;BME280;50709;52.648;4.764;2023-11-18T08:02:18;102015.34;;;11.27;74.18
64388;BME280;50709;52.648;4.764;2023-11-18T08:04:45;102013.81;;;10.50;73.42
64388;BME280;50709;52.648;4.764;2023-11-18T08:07:10;101986.28;;;10.66;74.98
64388;BME280;50709;52.648;4.764;2023-11-18T08:09:36;102001.19;;;10.71;72.84
64388;BME280;50709;52.648;4.764;2023-11-18T08:12:06;101998.16;;;10.50;74.29
64388;BME280;50709;52.648;4.764;2023-11-18T08:14:35;101992.53;;;10.72;74.74
64388;BME280;50709;52.648;4.764;2023-11-18T08:17:00;102004.03;;;10.82;75.54
64388;BME280;50709;52.648;4.764;2023-11-18T08:19:25;102001.00;;;10.62;73.47
64388;BME280;50709;52.648;4.764;2023-11-18T08:21:51;102004.69;;;11.16;74.02
64388;BME280;50709;52.648;4.764;2023-11-18T08:24:17;101998.09;;;11.38;74.54
64388;BME280;50709;52.648;4.764;2023-11-18T08:26:42;101987.03;;;11.04;74.44
64388;BME280;50709;52.648;4.764;2023-11-18T08:29:08;101977.63;;;10.68;74.48
64388;BME280;50709;52.648;4.764;2023-11-18T08:31:33;101970.03;;;10.81;75.29
64388;BME280;50709;52.648;4.764;2023-11-18T08:33:59;101963.66;;;11.12;74.56
64388;BME280;50709;52.648;4.764;2023-11-18T08:36:25;101950.81;;;10.77;74.73
64388;BME280;50709;52.648;4.764;2023-11-18T08:38:53;101948.25;;;11.29;74.51
64388;BME280;50709;52.648;4.764;2023-11-18T08:41:19;101935.66;;;11.06;75.36
64388;BME280;50709;52.648;4.764;2023-11-18T08:43:45;101946.41;;;11.78;74.06
64388;BME280;50709;52.648;4.764;2023-11-18T08:46:12;101961.72;;;11.54;74.46
64388;BME280;50709;52.648;4.764;2023-11-18T08:48:39;101939.31;;;11.16;73.87
64388;BME280;50709;52.648;4.764;2023-11-18T08:51:04;101926.47;;;11.30;74.30
64388;BME280;50709;52.648;4.764;2023-11-18T08:53:33;101924.91;;;10.89;73.97
64388;BME280;50709;52.648;4.764;2023-11-18T08:56:07;101915.31;;;11.40;73.83
64388;BME280;50709;52.648;4.764;2023-11-18T08:58:36;101918.84;;;11.44;73.60
64388;BME280;50709;52.648;4.764;2023-11-18T09:01:03;101915.94;;;10.76;72.97
64388;BME280;50709;52.648;4.764;2023-11-18T09:03:39;101911.78;;;10.40;73.93
64388;BME280;50709;52.648;4.764;2023-11-18T09:06:09;101900.88;;;10.63;75.18
64388;BME280;50709;52.648;4.764;2023-11-18T09:08:45;101894.25;;;10.81;74.77
64388;BME280;50709;52.648;4.764;2023-11-18T09:11:12;101871.03;;;10.98;74.93
64388;BME280;50709;52.648;4.764;2023-11-18T09:13:43;101895.16;;;10.83;75.25
64388;BME280;50709;52.648;4.764;2023-11-18T09:16:10;101877.75;;;10.83;75.51
64388;BME280;50709;52.648;4.764;2023-11-18T09:18:38;101882.81;;;10.74;73.96
64388;BME280;50709;52.648;4.764;2023-11-18T09:21:04;101890.34;;;10.57;74.27
64388;BME280;50709;52.648;4.764;2023-11-18T09:23:33;101884.53;;;10.73;75.64
64388;BME280;50709;52.648;4.764;2023-11-18T09:26:02;101893.13;;;10.66;75.32
64388;BME280;50709;52.648;4.764;2023-11-18T09:28:33;101880.06;;;11.17;76.39
64388;BME280;50709;52.648;4.764;2023-11-18T09:31:00;101882.69;;;10.66;76.10
64388;BME280;50709;52.648;4.764;2023-11-18T09:33:29;101874.25;;;10.81;76.05
64388;BME280;50709;52.648;4.764;2023-11-18T09:36:08;101877.25;;;11.06;77.65
64388;BME280;50709;52.648;4.764;2023-11-18T09:38:37;101883.97;;;10.90;76.12
64388;BME280;50709;52.648;4.764;2023-11-18T09:41:04;101886.53;;;11.40;77.13
64388;BME280;50709;52.648;4.764;2023-11-18T09:43:35;101892.63;;;11.39;75.08
64388;BME280;50709;52.648;4.764;2023-11-18T09:46:40;101912.13;;;11.06;76.80
64388;BME280;50709;52.648;4.764;2023-11-18T09:49:29;101904.88;;;10.90;75.81
64388;BME280;50709;52.648;4.764;2023-11-18T09:52:04;101910.59;;;11.19;75.69
64388;BME280;50709;52.648;4.764;2023-11-18T09:54:36;101903.66;;;11.21;75.95
64388;BME280;50709;52.648;4.764;2023-11-18T10:00:06;101878.84;;;10.96;75.58
64388;BME280;50709;52.648;4.764;2023-11-18T10:02:50;101879.84;;;11.03;77.45
64388;BME280;50709;52.648;4.764;2023-11-18T10:05:16;101860.34;;;10.84;76.58
64388;BME280;50709;52.648;4.764;2023-11-18T10:07:46;101854.38;;;10.91;76.08
64388;BME280;50709;52.648;4.764;2023-11-18T10:10:12;101851.94;;;11.03;76.10
64388;BME280;50709;52.648;4.764;2023-11-18T10:12:44;101832.72;;;11.01;77.76
64388;BME280;50709;52.648;4.764;2023-11-18T10:15:14;101799.31;;;10.82;77.61
64388;BME280;50709;52.648;4.764;2023-11-18T10:17:44;101799.69;;;11.66;78.39
64388;BME280;50709;52.648;4.764;2023-11-18T10:20:45;101789.63;;;11.97;78.71
64388;BME280;50709;52.648;4.764;2023-11-18T10:23:15;101770.56;;;12.10;79.06
64388;BME280;50709;52.648;4.764;2023-11-18T10:25:48;101808.81;;;11.94;79.08
64388;BME280;50709;52.648;4.764;2023-11-18T10:28:29;101777.78;;;12.32;80.02
64388;BME280;50709;52.648;4.764;2023-11-18T10:31:02;101826.69;;;12.33;78.78
64388;BME280;50709;52.648;4.764;2023-11-18T10:33:41;101827.41;;;12.19;77.63
64388;BME280;50709;52.648;4.764;2023-11-18T10:36:21;101788.88;;;12.07;77.47
64388;BME280;50709;52.648;4.764;2023-11-18T10:38:49;101793.22;;;12.05;77.92
64388;BME280;50709;52.648;4.764;2023-11-18T10:41:15;101782.13;;;12.30;76.71
64388;BME280;50709;52.648;4.764;2023-11-18T10:43:45;101745.91;;;11.93;74.89
64388;BME280;50709;52.648;4.764;2023-11-18T10:46:12;101739.28;;;12.23;78.06
64388;BME280;50709;52.648;4.764;2023-11-18T10:48:48;101694.72;;;11.41;75.53
64388;BME280;50709;52.648;4.764;2023-11-18T10:51:16;101705.00;;;11.26;76.34
64388;BME280;50709;52.648;4.764;2023-11-18T10:53:43;101699.25;;;11.55;79.47
64388;BME280;50709;52.648;4.764;2023-11-18T10:56:24;101694.38;;;11.12;79.43
64388;BME280;50709;52.648;4.764;2023-11-18T10:58:55;101697.22;;;11.32;80.14
64388;BME280;50709;52.648;4.764;2023-11-18T11:01:31;101663.66;;;10.97;79.34
64388;BME280;50709;52.648;4.764;2023-11-18T11:03:57;101662.19;;;11.18;79.92
64388;BME280;50709;52.648;4.764;2023-11-18T11:06:24;101657.25;;;10.75;78.76
64388;BME280;50709;52.648;4.764;2023-11-18T11:08:53;101660.56;;;11.26;79.88
64388;BME280;50709;52.648;4.764;2023-11-18T11:11:22;101659.78;;;11.35;79.63
64388;BME280;50709;52.648;4.764;2023-11-18T11:13:59;101660.00;;;11.55;78.62
64388;BME280;50709;52.648;4.764;2023-11-18T11:16:33;101649.28;;;11.33;81.23
64388;BME280;50709;52.648;4.764;2023-11-18T11:19:04;101629.09;;;11.21;79.17
64388;BME280;50709;52.648;4.764;2023-11-18T11:21:43;101599.66;;;10.69;80.96
64388;BME280;50709;52.648;4.764;2023-11-18T11:25:03;101603.75;;;11.14;80.32
64388;BME280;50709;52.648;4.764;2023-11-18T11:27:47;101606.09;;;10.91;81.01
64388;BME280;50709;52.648;4.764;2023-11-18T11:30:23;101607.16;;;10.44;81.29
64388;BME280;50709;52.648;4.764;2023-11-18T11:32:53;101609.91;;;10.52;81.15
64388;BME280;50709;52.648;4.764;2023-11-18T11:35:24;101592.41;;;11.12;81.47
64388;BME280;50709;52.648;4.764;2023-11-18T11:37:55;101578.13;;;10.84;79.38
64388;BME280;50709;52.648;4.764;2023-11-18T11:40:28;101584.19;;;10.83;80.16
64388;BME280;50709;52.648;4.764;2023-11-18T11:42:54;101574.50;;;10.75;79.61
64388;BME280;50709;52.648;4.764;2023-11-18T11:45:23;101556.66;;;11.09;78.04
64388;BME280;50709;52.648;4.764;2023-11-18T11:47:53;101564.25;;;10.88;80.15
64388;BME280;50709;52.648;4.764;2023-11-18T11:50:44;101536.31;;;10.84;81.55
64388;BME280;50709;52.648;4.764;2023-11-18T11:53:15;101513.09;;;10.38;82.32
64388;BME280;50709;52.648;4.764;2023-11-18T11:55:48;101535.75;;;11.09;82.25
64388;BME280;50709;52.648;4.764;2023-11-18T11:58:29;101559.75;;;11.57;78.32
64388;BME280;50709;52.648;4.764;2023-11-18T12:00:59;101574.72;;;11.75;78.88
64388;BME280;50709;52.648;4.764;2023-11-18T12:03:26;101622.72;;;11.73;77.08
64388;BME280;50709;52.648;4.764;2023-11-18T12:05:55;101616.75;;;11.91;76.21
64388;BME280;50709;52.648;4.764;2023-11-18T12:08:22;101574.03;;;11.92;77.98
64388;BME280;50709;52.648;4.764;2023-11-18T12:10:53;101565.72;;;11.42;78.73
64388;BME280;50709;52.648;4.764;2023-11-18T12:13:19;101535.16;;;11.40;79.14
64388;BME280;50709;52.648;4.764;2023-11-18T12:15:49;101523.53;;;11.11;80.19
64388;BME280;50709;52.648;4.764;2023-11-18T12:21:55;101493.75;;;10.96;80.84
64388;BME280;50709;52.648;4.764;2023-11-18T12:24:21;101517.97;;;10.81;82.24
64388;BME280;50709;52.648;4.764;2023-11-18T12:26:48;101516.50;;;11.97;79.19
64388;BME280;50709;52.648;4.764;2023-11-18T12:29:31;101509.28;;;10.83;79.56
64388;BME280;50709;52.648;4.764;2023-11-18T12:31:56;101487.97;;;11.26;79.38
64388;BME280;50709;52.648;4.764;2023-11-18T12:34:23;101481.00;;;11.26;81.22
64388;BME280;50709;52.648;4.764;2023-11-18T12:40:23;101455.56;;;11.08;78.66
64388;BME280;50709;52.648;4.764;2023-11-18T12:43:02;101473.25;;;11.39;79.74
64388;BME280;50709;52.648;4.764;2023-11-18T12:46:29;101467.34;;;11.60;78.33
64388;BME280;50709;52.648;4.764;2023-11-18T12:48:43;101434.22;;;11.62;77.72
64388;BME280;50709;52.648;4.764;2023-11-18T12:51:12;101418.16;;;11.17;80.16
64388;BME280;50709;52.648;4.764;2023-11-18T12:53:47;101415.88;;;11.59;80.11
64388;BME280;50709;52.648;4.764;2023-11-18T12:56:16;101377.47;;;11.56;80.51
64388;BME280;50709;52.648;4.764;2023-11-18T12:58:45;101407.16;;;11.55;80.47
64388;BME280;50709;52.648;4.764;2023-11-18T13:01:11;101406.16;;;11.39;80.70
64388;BME280;50709;52.648;4.764;2023-11-18T13:03:42;101383.38;;;11.26;80.95
64388;BME280;50709;52.648;4.764;2023-11-18T13:06:11;101372.59;;;10.90;82.39
64388;BME280;50709;52.648;4.764;2023-11-18T13:08:42;101342.16;;;10.96;82.50
64388;BME280;50709;52.648;4.764;2023-11-18T13:11:07;101361.28;;;10.90;83.14
64388;BME280;50709;52.648;4.764;2023-11-18T13:13:41;101371.16;;;11.20;82.33
64388;BME280;50709;52.648;4.764;2023-11-18T13:16:07;101340.47;;;11.02;84.24
64388;BME280;50709;52.648;4.764;2023-11-18T13:18:47;101314.22;;;10.87;82.68
64388;BME280;50709;52.648;4.764;2023-11-18T13:21:19;101330.84;;;10.92;84.24